Time;durP1;ratioP1;P1;durP2;ratioP2;P2;SDS_P1;SDS_P2;PMS_P1;PMS_P2;Temp;Humidity;BMP_temperature;BMP_pressure;BME280_temperature;BME280_humidity;BME280_pressure;Samples;Min_cycle;Max_cycle;Signal;HPM_P1;HPM_P2
2021/11/07 00:09:56;;;;;;;31.38;13.43;;;2.30;97.60;;;;;;5021843;28;20208;-71
2021/11/07 00:12:26;;;;;;;26.58;13.52;;;2.30;97.50;;;;;;5021122;28;20264;-71
2021/11/07 00:14:52;;;;;;;26.17;12.23;;;2.20;97.30;;;;;;5020396;28;20018;-71
2021/11/07 00:17:22;;;;;;;26.95;12.30;;;2.00;97.60;;;;;;5022341;28;20080;-71
2021/11/07 00:19:55;;;;;;;29.83;12.70;;;2.10;97.70;;;;;;5020626;28;20116;-71
2021/11/07 00:22:34;;;;;;;28.55;11.93;;;2.00;97.60;;;;;;5020890;28;20025;-71
2021/11/07 00:27:47;;;;;;;28.15;12.43;;;2.10;97.90;;;;;;5022290;28;20013;-72
2021/11/07 00:30:19;;;;;;;31.10;12.82;;;2.10;97.80;;;;;;5018039;28;20023;-72
2021/11/07 00:33:38;;;;;;;28.67;11.95;;;2.10;97.80;;;;;;5001369;28;20026;-71
2021/11/07 00:36:08;;;;;;;24.38;10.95;;;2.10;97.40;;;;;;5011403;28;20317;-71
2021/11/07 00:38:23;;;;;;;24.25;11.00;;;2.10;97.40;;;;;;5020683;28;20101;-71
2021/11/07 00:41:02;;;;;;;30.15;13.27;;;2.10;97.30;;;;;;5020850;28;20033;-72
2021/11/07 00:43:40;;;;;;;27.17;13.27;;;2.20;97.30;;;;;;5020257;28;20037;-72
2021/11/07 00:52:17;;;;;;;25.10;12.35;;;2.10;97.30;;;;;;5027584;28;20040;-72
2021/11/07 00:54:21;;;;;;;26.98;12.82;;;2.10;97.40;;;;;;5015160;28;20260;-71
2021/11/07 00:56:54;;;;;;;23.95;11.05;;;2.00;97.50;;;;;;5040138;28;20072;-72
2021/11/07 00:59:34;;;;;;;25.52;12.13;;;2.10;97.50;;;;;;5025233;28;20018;-71
2021/11/07 01:02:22;;;;;;;26.90;11.98;;;2.00;97.30;;;;;;5024472;28;20044;-72
2021/11/07 01:04:49;;;;;;;24.23;11.18;;;2.10;97.30;;;;;;5024666;28;20027;-71
2021/11/07 01:07:16;;;;;;;24.55;12.15;;;2.10;97.20;;;;;;5025608;28;20093;-71
2021/11/07 01:09:43;;;;;;;26.20;11.27;;;2.10;97.20;;;;;;5024565;28;20032;-71
2021/11/07 01:12:09;;;;;;;25.02;11.73;;;2.10;97.30;;;;;;5040605;28;20034;-71
2021/11/07 01:14:35;;;;;;;24.30;11.98;;;2.20;97.20;;;;;;5024154;28;20032;-72
2021/11/07 01:17:01;;;;;;;27.53;13.20;;;2.10;97.10;;;;;;5039987;28;20026;-71
2021/11/07 01:19:27;;;;;;;26.52;12.30;;;2.20;97.20;;;;;;5025492;28;20018;-72
2021/11/07 01:21:53;;;;;;;25.55;13.07;;;2.30;97.00;;;;;;5023108;28;20045;-72
2021/11/07 01:26:49;;;;;;;26.52;12.75;;;2.30;97.00;;;;;;5025363;28;20021;-71
2021/11/07 01:29:26;;;;;;;23.42;11.02;;;2.30;96.90;;;;;;5040088;28;20083;-71
2021/11/07 01:31:53;;;;;;;24.33;11.77;;;2.30;97.00;;;;;;5008706;28;20212;-72
2021/11/07 01:37:08;;;;;;;25.48;11.68;;;2.20;96.80;;;;;;5024298;28;19909;-71
2021/11/07 01:39:49;;;;;;;27.70;11.20;;;2.20;96.90;;;;;;5024107;28;20026;-71
2021/11/07 01:42:53;;;;;;;25.92;12.02;;;2.20;97.00;;;;;;5024769;28;20017;-71
2021/11/07 01:45:27;;;;;;;27.63;11.60;;;2.20;97.00;;;;;;5023918;28;20244;-71
2021/11/07 01:48:06;;;;;;;23.35;10.52;;;2.30;96.90;;;;;;5023883;28;20026;-71
2021/11/07 01:50:38;;;;;;;22.73;11.50;;;2.20;96.80;;;;;;5022763;28;20022;-72
2021/11/07 01:53:17;;;;;;;25.27;10.07;;;2.30;96.70;;;;;;5024303;28;20021;-72
2021/11/07 01:55:43;;;;;;;23.70;11.05;;;2.20;96.70;;;;;;5008111;28;20030;-71
2021/11/07 01:58:08;;;;;;;23.48;11.80;;;2.10;96.80;;;;;;5024797;28;20221;-71
2021/11/07 02:00:34;;;;;;;17.15;8.85;;;2.20;96.70;;;;;;5023357;28;20025;-72
2021/11/07 02:03:00;;;;;;;22.42;11.60;;;2.20;96.60;;;;;;5023643;28;20025;-72
2021/11/07 02:05:26;;;;;;;24.63;11.10;;;2.10;96.60;;;;;;5022641;28;20033;-72
2021/11/07 02:07:52;;;;;;;24.23;10.98;;;2.20;96.60;;;;;;5023334;28;20061;-72
2021/11/07 02:10:18;;;;;;;20.77;10.05;;;2.10;96.30;;;;;;5024518;28;20033;-72
2021/11/07 02:12:44;;;;;;;22.42;11.10;;;2.20;96.40;;;;;;5038370;28;20029;-71
2021/11/07 02:15:16;;;;;;;19.97;8.90;;;2.10;96.40;;;;;;5006906;28;20317;-71
2021/11/07 02:17:43;;;;;;;22.13;10.20;;;2.10;96.30;;;;;;5023461;28;20150;-71
2021/11/07 02:20:12;;;;;;;18.85;9.27;;;2.00;96.30;;;;;;5023141;28;20021;-71
2021/11/07 02:22:39;;;;;;;20.77;10.07;;;2.00;96.40;;;;;;5022029;28;20080;-71
2021/11/07 02:25:05;;;;;;;21.20;9.70;;;1.90;96.40;;;;;;5022597;28;20025;-71
2021/11/07 02:27:31;;;;;;;20.73;10.25;;;1.90;96.70;;;;;;5038705;28;20030;-71
2021/11/07 02:29:58;;;;;;;24.05;10.23;;;1.90;96.60;;;;;;5022384;28;20089;-71
2021/11/07 02:32:25;;;;;;;19.10;8.77;;;2.00;96.60;;;;;;5037377;28;20026;-71
2021/11/07 02:34:52;;;;;;;21.48;10.52;;;2.00;96.60;;;;;;5038595;28;20282;-72
2021/11/07 02:37:18;;;;;;;20.00;9.15;;;2.10;96.50;;;;;;5042687;23;20099;-74
2021/11/07 02:39:44;;;;;;;22.48;10.70;;;2.10;96.50;;;;;;5035714;28;20021;-72
2021/11/07 02:42:11;;;;;;;18.83;8.73;;;2.00;96.60;;;;;;5043704;28;20024;-72
2021/11/07 02:44:40;;;;;;;;;;;2.00;96.50;;;;;;5027859;28;20041;-73
2021/11/07 02:47:08;;;;;;;21.10;9.20;;;2.00;96.40;;;;;;5075864;28;20012;-73
2021/11/07 02:49:35;;;;;;;23.65;10.27;;;2.10;96.50;;;;;;5006625;28;20030;-75
2021/11/07 02:52:01;;;;;;;21.35;9.65;;;2.00;96.60;;;;;;5055673;28;20094;-75
2021/11/07 02:54:27;;;;;;;27.13;11.50;;;2.00;96.80;;;;;;5006503;28;20033;-75
2021/11/07 02:56:55;;;;;;;24.73;11.07;;;2.10;96.70;;;;;;5039218;28;20343;-74
2021/11/07 02:59:24;;;;;;;27.35;10.95;;;2.10;96.60;;;;;;5037985;28;20029;-75
2021/11/07 03:01:52;;;;;;;22.90;10.43;;;2.20;96.70;;;;;;5023382;28;20132;-75
2021/11/07 03:04:17;;;;;;;22.15;9.65;;;2.30;96.60;;;;;;5021517;28;20036;-74
2021/11/07 03:06:43;;;;;;;25.77;10.63;;;2.30;96.40;;;;;;5022203;28;20022;-75
2021/11/07 03:09:23;;;;;;;24.75;11.18;;;2.30;96.30;;;;;;5053667;28;20020;-75
2021/11/07 03:11:50;;;;;;;20.75;10.07;;;2.40;96.30;;;;;;5020882;28;20080;-76
2021/11/07 03:14:24;;;;;;;;;;;2.40;96.20;;;;;;5022559;28;20033;-75
2021/11/07 03:16:50;;;;;;;23.30;10.57;;;2.30;96.40;;;;;;5053436;28;20135;-74
2021/11/07 03:19:19;;;;;;;27.30;12.48;;;2.20;96.60;;;;;;5055008;28;20022;-74
2021/11/07 03:21:46;;;;;;;24.92;11.32;;;2.20;96.70;;;;;;5054778;28;20340;-75
2021/11/07 03:24:13;;;;;;;26.27;12.10;;;2.30;96.70;;;;;;5053641;28;20039;-75
2021/11/07 03:26:39;;;;;;;24.98;10.38;;;2.20;96.60;;;;;;5038258;28;20018;-75
2021/11/07 03:29:07;;;;;;;27.23;11.73;;;2.20;96.80;;;;;;5023191;28;20037;-74
2021/11/07 03:31:49;;;;;;;28.75;11.88;;;2.30;96.80;;;;;;5037022;28;20140;-75
2021/11/07 03:36:51;;;;;;;28.10;11.15;;;2.30;96.70;;;;;;5037337;28;20025;-74
2021/11/07 03:39:18;;;;;;;25.17;11.80;;;2.20;96.90;;;;;;5021731;28;20018;-75
2021/11/07 03:41:45;;;;;;;;;;;2.10;96.90;;;;;;5054762;28;20014;-75
2021/11/07 03:44:11;;;;;;;27.20;11.65;;;2.10;97.00;;;;;;5054687;28;19906;-74
2021/11/07 03:46:38;;;;;;;24.85;10.15;;;2.10;97.00;;;;;;5037861;28;20013;-75
2021/11/07 03:49:05;;;;;;;25.02;10.63;;;2.00;97.20;;;;;;5022808;28;20121;-75
2021/11/07 03:51:31;;;;;;;;;;;2.10;97.20;;;;;;5053875;28;20328;-75
2021/11/07 03:53:58;;;;;;;24.98;10.35;;;2.00;97.20;;;;;;5022616;28;19980;-74
2021/11/07 03:56:25;;;;;;;28.77;11.93;;;2.00;97.20;;;;;;5037798;28;20089;-75
2021/11/07 03:58:51;;;;;;;;;;;2.00;97.30;;;;;;5017853;28;20014;-74
2021/11/07 04:01:18;;;;;;;23.63;10.70;;;1.90;97.50;;;;;;5002762;28;19928;-74
2021/11/07 04:03:44;;;;;;;27.33;11.85;;;1.90;97.60;;;;;;5001905;28;20038;-75
2021/11/07 04:06:12;;;;;;;32.58;12.63;;;1.90;97.70;;;;;;4985742;28;20034;-75
2021/11/07 04:08:39;;;;;;;27.73;13.63;;;1.90;97.80;;;;;;5017299;28;20216;-75
2021/11/07 04:11:05;;;;;;;28.20;12.85;;;1.90;97.80;;;;;;5037628;28;20194;-74
2021/11/07 04:13:32;;;;;;;28.55;13.02;;;1.90;97.80;;;;;;5022110;28;20089;-74
2021/11/07 04:15:58;;;;;;;27.27;11.98;;;1.90;97.70;;;;;;5022508;28;20063;-74
2021/11/07 04:18:23;;;;;;;30.48;13.35;;;1.90;97.80;;;;;;5053236;28;20193;-73
2021/11/07 04:20:49;;;;;;;30.33;12.75;;;1.90;97.80;;;;;;5020834;28;20097;-73
2021/11/07 04:23:15;;;;;;;38.17;14.97;;;1.90;97.80;;;;;;5004694;28;20022;-73
2021/11/07 04:25:41;;;;;;;29.38;14.05;;;1.90;97.80;;;;;;5021271;28;20328;-73
2021/11/07 04:28:07;;;;;;;28.65;11.68;;;1.80;97.80;;;;;;4988631;28;20026;-73
2021/11/07 04:30:34;;;;;;;30.60;13.30;;;1.80;97.90;;;;;;5020501;28;20030;-73
2021/11/07 04:33:00;;;;;;;32.17;13.43;;;1.80;98.10;;;;;;5020710;28;20056;-73
2021/11/07 04:35:28;;;;;;;30.30;12.80;;;1.80;98.00;;;;;;5022183;28;20024;-73
2021/11/07 04:37:54;;;;;;;35.05;14.30;;;1.80;98.10;;;;;;5037262;28;20073;-75
2021/11/07 04:40:20;;;;;;;36.97;13.07;;;1.80;98.10;;;;;;5053819;28;20045;-75
2021/11/07 04:42:47;;;;;;;38.55;15.50;;;1.80;98.10;;;;;;5021019;28;20273;-74
2021/11/07 04:45:13;;;;;;;30.95;13.43;;;1.80;98.20;;;;;;5036689;28;20038;-75
2021/11/07 04:47:39;;;;;;;37.08;14.48;;;1.80;98.20;;;;;;5021746;28;20033;-75
2021/11/07 04:50:07;;;;;;;34.25;15.05;;;1.90;98.20;;;;;;5037492;28;20042;-75
2021/11/07 04:52:32;;;;;;;36.40;14.60;;;1.90;98.10;;;;;;5020454;28;20022;-74
2021/11/07 04:54:59;;;;;;;36.92;13.85;;;1.90;98.20;;;;;;5022117;28;20030;-75
2021/11/07 04:57:25;;;;;;;39.47;15.00;;;1.90;98.20;;;;;;5036326;28;20041;-75
2021/11/07 04:59:51;;;;;;;40.00;15.70;;;1.90;98.20;;;;;;5020991;28;20099;-75
2021/11/07 05:02:17;;;;;;;35.63;14.75;;;1.90;98.20;;;;;;5021765;28;20025;-74
2021/11/07 05:04:43;;;;;;;39.85;15.43;;;1.90;98.30;;;;;;5054002;28;20065;-74
2021/11/07 05:07:08;;;;;;;40.15;16.73;;;1.90;98.30;;;;;;5021045;28;20025;-74
2021/11/07 05:09:34;;;;;;;38.75;14.90;;;2.00;98.20;;;;;;5021959;28;20029;-75
2021/11/07 05:12:01;;;;;;;42.38;16.20;;;2.00;98.20;;;;;;5053478;28;20045;-75
2021/11/07 05:14:27;;;;;;;39.45;16.42;;;2.00;98.10;;;;;;5004558;28;20022;-75
2021/11/07 05:16:53;;;;;;;38.47;15.27;;;2.00;98.10;;;;;;5036686;28;20349;-74
2021/11/07 05:19:18;;;;;;;33.70;14.20;;;2.00;98.10;;;;;;5021563;28;20025;-74
2021/11/07 05:21:45;;;;;;;39.38;14.68;;;2.10;98.10;;;;;;5020967;28;20321;-74
2021/11/07 05:24:11;;;;;;;36.65;14.90;;;2.10;98.20;;;;;;5020481;28;20032;-75
2021/11/07 05:26:36;;;;;;;37.70;14.43;;;2.10;98.20;;;;;;5021754;28;20026;-74
2021/11/07 05:29:04;;;;;;;39.13;15.38;;;2.10;98.20;;;;;;5021390;28;20029;-75
2021/11/07 05:31:31;;;;;;;41.92;15.07;;;2.10;98.20;;;;;;5021758;28;20017;-75
2021/11/07 05:33:57;;;;;;;32.90;14.10;;;2.20;98.20;;;;;;5056274;28;20022;-75
2021/11/07 05:36:23;;;;;;;33.38;14.50;;;2.20;98.20;;;;;;5022516;28;20045;-75
2021/11/07 05:38:48;;;;;;;37.10;15.80;;;2.20;98.20;;;;;;5025051;28;20029;-75
2021/11/07 05:41:14;;;;;;;39.15;15.32;;;2.20;98.00;;;;;;5055952;28;20271;-75
2021/11/07 05:43:41;;;;;;;37.58;15.30;;;2.20;97.80;;;;;;5024253;28;20030;-76
2021/11/07 05:46:07;;;;;;;31.65;13.90;;;2.20;97.90;;;;;;5055117;28;20026;-75
2021/11/07 05:48:33;;;;;;;37.20;14.18;;;2.20;97.70;;;;;;5024976;28;20033;-75
2021/11/07 05:50:59;;;;;;;34.92;16.00;;;2.10;97.70;;;;;;5055832;28;20018;-75
2021/11/07 05:53:25;;;;;;;38.03;15.02;;;2.10;97.80;;;;;;5023679;28;20053;-74
2021/11/07 05:55:52;;;;;;;34.33;13.68;;;2.10;97.50;;;;;;5056784;28;20013;-75
2021/11/07 05:58:18;;;;;;;31.33;13.90;;;2.10;97.60;;;;;;5023195;28;20049;-75
2021/11/07 06:00:45;;;;;;;30.67;13.00;;;2.10;97.40;;;;;;5024479;28;20026;-75
2021/11/07 06:03:11;;;;;;;35.38;14.25;;;2.00;97.50;;;;;;5038892;28;20021;-74
2021/11/07 06:05:37;;;;;;;35.72;15.32;;;2.10;97.60;;;;;;5056293;28;20092;-74
2021/11/07 06:08:04;;;;;;;29.63;13.95;;;2.10;97.50;;;;;;5040252;28;20037;-76
2021/11/07 06:10:30;;;;;;;34.63;14.02;;;2.10;97.40;;;;;;5057857;28;20026;-75
2021/11/07 06:12:56;;;;;;;39.55;14.55;;;2.00;97.40;;;;;;5057971;28;20096;-75
2021/11/07 06:15:22;;;;;;;33.70;15.20;;;2.10;97.40;;;;;;5058986;28;20021;-73
2021/11/07 06:17:47;;;;;;;34.80;14.55;;;2.00;97.70;;;;;;5023975;28;20026;-73
2021/11/07 06:20:13;;;;;;;30.40;12.90;;;2.10;97.50;;;;;;5024039;28;20033;-73
2021/11/07 06:22:39;;;;;;;31.95;13.50;;;2.00;97.50;;;;;;5024564;28;20022;-74
2021/11/07 06:25:05;;;;;;;36.90;15.52;;;2.00;97.50;;;;;;5055457;28;20034;-75
2021/11/07 06:27:32;;;;;;;31.83;14.30;;;2.00;97.50;;;;;;5007101;28;20028;-73
2021/11/07 06:29:59;;;;;;;37.38;13.80;;;2.00;97.60;;;;;;5038695;28;20283;-73
2021/11/07 06:32:25;;;;;;;36.92;13.93;;;2.10;97.60;;;;;;5022860;28;20022;-75
2021/11/07 06:34:51;;;;;;;34.05;12.43;;;2.10;97.60;;;;;;5023070;28;20088;-74
2021/11/07 06:37:16;;;;;;;38.47;14.52;;;2.10;97.50;;;;;;5005891;28;20316;-74
2021/11/07 06:39:42;;;;;;;31.52;14.38;;;2.20;97.60;;;;;;5056468;28;20036;-75
2021/11/07 06:42:09;;;;;;;32.40;13.30;;;2.20;97.60;;;;;;5022331;28;20072;-75
2021/11/07 06:44:35;;;;;;;36.38;14.60;;;2.20;97.60;;;;;;5054550;28;20030;-73
2021/11/07 06:47:02;;;;;;;33.72;14.05;;;2.30;97.50;;;;;;5020905;28;20153;-73
2021/11/07 06:49:27;;;;;;;;;;;2.30;97.50;;;;;;5006426;28;20056;-74
2021/11/07 06:51:54;;;;;;;33.13;12.93;;;2.30;97.50;;;;;;5022129;28;19905;-74
2021/11/07 06:54:21;;;;;;;33.35;14.40;;;2.40;97.60;;;;;;5022581;28;20275;-74
2021/11/07 06:56:47;;;;;;;35.85;15.00;;;2.40;97.50;;;;;;5022452;28;20216;-74
2021/11/07 06:59:13;;;;;;;37.55;14.43;;;2.40;97.40;;;;;;5022399;28;20030;-74
2021/11/07 07:01:39;;;;;;;31.33;12.43;;;2.50;97.40;;;;;;5022300;28;20024;-74
2021/11/07 07:04:05;;;;;;;31.95;14.35;;;2.60;97.20;;;;;;5006084;28;20261;-74
2021/11/07 07:06:32;;;;;;;29.08;13.00;;;2.60;97.10;;;;;;5022369;28;20224;-74
2021/11/07 07:09:03;;;;;;;26.50;12.05;;;2.60;97.10;;;;;;5022070;28;20044;-74
2021/11/07 07:11:36;;;;;;;29.17;12.55;;;2.70;97.10;;;;;;5022155;28;20029;-74
2021/11/07 07:14:09;;;;;;;27.15;12.07;;;2.70;97.00;;;;;;5022259;28;20025;-74
2021/11/07 07:16:53;;;;;;;27.55;11.93;;;2.70;96.90;;;;;;5006757;28;20030;-74
2021/11/07 07:35:21;;;;;;;24.10;10.23;;;3.10;96.30;;;;;;5016183;28;20033;-74
2021/11/07 07:37:47;;;;;;;30.55;12.88;;;3.20;96.30;;;;;;5032402;28;20033;-74
2021/11/07 07:40:13;;;;;;;25.30;11.50;;;3.30;96.10;;;;;;5022941;28;20033;-74
2021/11/07 07:42:39;;;;;;;26.48;12.75;;;3.50;95.90;;;;;;5053446;28;20022;-74
2021/11/07 07:45:07;;;;;;;28.80;12.38;;;3.50;95.50;;;;;;5022954;28;20220;-74
2021/11/07 07:47:32;;;;;;;27.17;11.35;;;3.60;95.40;;;;;;5036953;28;20029;-74
2021/11/07 07:49:59;;;;;;;24.13;10.60;;;3.60;95.20;;;;;;5022527;28;20029;-73
2021/11/07 07:52:27;;;;;;;22.67;10.80;;;3.70;94.70;;;;;;5037519;28;20026;-73
2021/11/07 07:54:53;;;;;;;26.38;10.48;;;3.80;95.00;;;;;;5021842;28;20025;-73
2021/11/07 07:57:18;;;;;;;21.90;9.88;;;3.90;94.70;;;;;;5037889;28;20064;-74
2021/11/07 07:59:44;;;;;;;27.70;12.48;;;4.00;94.60;;;;;;5020704;28;20053;-75
2021/11/07 08:02:10;;;;;;;24.03;11.67;;;4.10;94.80;;;;;;5054024;28;20213;-74
2021/11/07 08:04:36;;;;;;;23.15;10.48;;;4.10;94.30;;;;;;5036610;28;20310;-75
2021/11/07 08:07:02;;;;;;;21.88;10.75;;;4.20;94.40;;;;;;5020311;28;20045;-74
2021/11/07 08:09:28;;;;;;;20.88;10.07;;;4.20;94.50;;;;;;5014580;28;20038;-74
2021/11/07 08:11:54;;;;;;;21.60;9.05;;;4.20;94.10;;;;;;5020108;28;20394;-73
2021/11/07 08:14:20;;;;;;;22.25;10.43;;;4.30;94.20;;;;;;5021090;28;20053;-74
2021/11/07 08:16:46;;;;;;;20.80;10.38;;;4.30;93.90;;;;;;5022251;28;20018;-72
2021/11/07 08:19:12;;;;;;;22.45;10.23;;;4.40;93.70;;;;;;5021298;28;20228;-74
2021/11/07 08:21:39;;;;;;;20.75;9.40;;;4.30;93.60;;;;;;5034169;28;20244;-72
2021/11/07 08:24:06;;;;;;;21.92;10.40;;;4.30;93.30;;;;;;4999757;28;20084;-72
2021/11/07 08:26:32;;;;;;;19.92;9.85;;;4.40;93.50;;;;;;5021176;28;20347;-73
2021/11/07 08:29:00;;;;;;;21.05;9.95;;;4.40;93.60;;;;;;5016661;28;20038;-71
2021/11/07 08:31:28;;;;;;;;;;;4.40;93.50;;;;;;5001362;28;20026;-72
2021/11/07 08:33:55;;;;;;;25.63;10.98;;;4.50;93.20;;;;;;5002475;28;19918;-75
2021/11/07 08:36:32;;;;;;;21.88;9.85;;;4.60;93.20;;;;;;5053174;28;20045;-72
2021/11/07 08:39:09;;;;;;;19.13;9.18;;;4.50;93.30;;;;;;5021869;28;20270;-72
2021/11/07 08:41:42;;;;;;;18.67;8.60;;;4.50;93.10;;;;;;5020656;28;20021;-73
2021/11/07 09:03:12;;;;;;;18.95;8.80;;;4.80;93.00;;;;;;5000606;28;20026;-73
2021/11/07 09:08:25;;;;;;;18.52;9.18;;;4.80;93.10;;;;;;5008410;28;20028;-71
2021/11/07 09:10:51;;;;;;;21.58;10.65;;;4.90;92.90;;;;;;5024274;28;20057;-72
2021/11/07 09:13:17;;;;;;;23.30;11.47;;;4.90;92.90;;;;;;5023821;28;20053;-73
2021/11/07 09:15:46;;;;;;;20.05;9.10;;;4.90;93.00;;;;;;5056913;28;20034;-74
2021/11/07 09:18:12;;;;;;;19.90;9.23;;;4.90;93.00;;;;;;4991859;28;20022;-73
2021/11/07 09:23:30;;;;;;;16.77;7.95;;;5.10;93.00;;;;;;5013190;28;20041;-72
2021/11/07 09:28:35;;;;;;;16.17;8.27;;;5.40;93.00;;;;;;5024216;28;20034;-72
2021/11/07 09:31:14;;;;;;;16.48;7.75;;;5.60;92.70;;;;;;5009109;28;20830;-72
2021/11/07 09:34:05;;;;;;;15.07;7.45;;;5.60;93.30;;;;;;5009943;28;20068;-72
2021/11/07 09:36:36;;;;;;;20.80;9.85;;;5.60;92.30;;;;;;5037572;28;20078;-72
2021/11/07 09:41:55;;;;;;;15.48;8.35;;;5.60;93.40;;;;;;5024115;28;20089;-71
2021/11/07 09:44:19;;;;;;;18.20;7.70;;;5.60;92.70;;;;;;5026470;28;20037;-72
2021/11/07 09:46:49;;;;;;;13.30;6.40;;;5.70;92.60;;;;;;5024933;28;20017;-73
2021/11/07 09:49:27;;;;;;;12.45;7.60;;;5.70;92.60;;;;;;5025657;28;20102;-72
2021/11/07 09:52:07;;;;;;;11.38;6.10;;;5.70;92.70;;;;;;5008957;28;20045;-73
2021/11/07 09:54:34;;;;;;;11.65;6.20;;;5.70;93.00;;;;;;5025081;28;20074;-72
2021/11/07 09:57:00;;;;;;;10.15;5.95;;;5.60;92.90;;;;;;5022611;28;20085;-72
2021/11/07 09:59:28;;;;;;;10.45;6.43;;;5.70;93.00;;;;;;5022765;28;20372;-72
2021/11/07 10:01:58;;;;;;;10.90;5.38;;;5.70;92.60;;;;;;5023548;28;20029;-72
2021/11/07 10:04:36;;;;;;;8.85;5.85;;;5.70;92.60;;;;;;5023448;28;20309;-72
2021/11/07 10:07:18;;;;;;;14.48;6.82;;;5.80;92.80;;;;;;5022928;28;20022;-72
2021/11/07 10:09:44;;;;;;;10.25;5.40;;;5.80;92.70;;;;;;5039931;28;20102;-72
2021/11/07 10:12:21;;;;;;;13.27;6.00;;;5.80;92.60;;;;;;5023214;28;20084;-72
2021/11/07 10:14:55;;;;;;;11.95;6.88;;;5.90;92.60;;;;;;5023157;28;20110;-72
2021/11/07 10:17:38;;;;;;;9.60;5.30;;;5.90;92.40;;;;;;5021997;28;20216;-72
2021/11/07 10:20:54;;;;;;;10.73;5.22;;;6.00;92.40;;;;;;5023315;28;20026;-72
2021/11/07 10:23:20;;;;;;;10.07;5.53;;;6.00;92.50;;;;;;5013047;28;20080;-72
2021/11/07 10:25:58;;;;;;;12.77;6.15;;;6.10;92.70;;;;;;5016934;28;20041;-72
2021/11/07 10:28:45;;;;;;;12.85;5.85;;;6.10;92.40;;;;;;5018820;28;20103;-71
2021/11/07 10:31:32;;;;;;;12.18;5.80;;;6.20;92.40;;;;;;5004118;28;20022;-73
2021/11/07 10:34:49;;;;;;;14.82;7.22;;;6.30;92.10;;;;;;5010620;28;20116;-73
2021/11/07 10:42:27;;;;;;;12.98;6.68;;;6.10;92.70;;;;;;5023690;28;20033;-71
2021/11/07 10:45:09;;;;;;;11.90;6.05;;;6.10;92.70;;;;;;5021869;28;20259;-70
2021/11/07 10:53:12;;;;;;;10.80;5.50;;;6.30;93.20;;;;;;5022710;28;20145;-71
2021/11/07 10:55:51;;;;;;;11.18;5.70;;;6.30;93.90;;;;;;5022156;28;20037;-71
2021/11/07 10:58:28;;;;;;;9.52;5.45;;;6.30;93.40;;;;;;5019548;28;20275;-71
2021/11/07 11:00:55;;;;;;;;;;;6.30;94.00;;;;;;5021953;28;20022;-70
2021/11/07 11:03:22;;;;;;;10.55;5.80;;;6.30;93.90;;;;;;5023247;28;19905;-70
2021/11/07 11:08:33;;;;;;;8.27;5.15;;;6.30;93.80;;;;;;5022965;28;20017;-70
2021/11/07 11:16:43;;;;;;;9.75;5.75;;;6.40;93.50;;;;;;5022168;28;20242;-70
2021/11/07 11:22:23;;;;;;;12.93;4.85;;;6.40;93.70;;;;;;5021859;28;20013;-71
2021/11/07 11:25:35;;;;;;;11.40;4.97;;;6.50;93.90;;;;;;5020485;28;20379;-71
2021/11/07 11:28:14;;;;;;;8.80;5.68;;;6.60;93.90;;;;;;5020950;28;20045;-70
2021/11/07 11:36:26;;;;;;;12.63;5.50;;;6.60;93.70;;;;;;5021036;28;20090;-70
2021/11/07 11:39:00;;;;;;;9.23;5.00;;;6.60;93.90;;;;;;5021597;28;20033;-70
2021/11/07 11:41:49;;;;;;;9.95;5.68;;;6.70;93.90;;;;;;5006248;28;20028;-70
2021/11/07 11:44:16;;;;;;;9.40;4.70;;;6.80;93.90;;;;;;5022137;28;20044;-70
2021/11/07 11:47:17;;;;;;;8.77;4.97;;;6.90;93.70;;;;;;5004388;28;20259;-70
2021/11/07 12:00:58;;;;;;;7.43;4.45;;;7.40;92.70;;;;;;5022001;28;20022;-70
2021/11/07 12:15:41;;;;;;;4.70;2.63;;;7.60;92.00;;;;;;5021440;28;20053;-73
2021/11/07 12:17:48;;;;;;;4.05;3.03;;;7.50;92.20;;;;;;5008493;28;20371;-69
2021/11/07 12:20:32;;;;;;;5.18;3.13;;;7.50;92.10;;;;;;5014026;28;20013;-69
2021/11/07 12:23:38;;;;;;;6.90;3.17;;;7.40;92.60;;;;;;5017074;28;20034;-69
2021/11/07 12:26:30;;;;;;;5.28;2.78;;;7.50;92.70;;;;;;5001440;28;20034;-70
2021/11/07 12:28:59;;;;;;;6.57;2.78;;;7.50;92.70;;;;;;4999407;28;20347;-69
2021/11/07 12:31:25;;;;;;;5.82;3.05;;;7.60;92.60;;;;;;5020282;28;20025;-69
2021/11/07 12:34:11;;;;;;;6.85;2.72;;;7.60;92.50;;;;;;5021766;28;20034;-69
2021/11/07 12:42:26;;;;;;;4.93;2.42;;;7.80;92.00;;;;;;5006275;28;20099;-68
2021/11/07 12:44:56;;;;;;;3.67;2.25;;;7.80;92.10;;;;;;5005919;28;20035;-69
2021/11/07 12:47:25;;;;;;;4.30;2.17;;;7.80;92.10;;;;;;5040252;28;20040;-68
2021/11/07 12:50:04;;;;;;;5.22;2.30;;;7.90;92.00;;;;;;5023788;28;20030;-68
2021/11/07 12:52:30;;;;;;;4.13;2.53;;;7.90;91.70;;;;;;5025566;28;20022;-69
2021/11/07 12:54:56;;;;;;;7.35;2.97;;;7.90;91.50;;;;;;5024885;28;20036;-70
2021/11/07 12:57:22;;;;;;;4.70;2.47;;;7.90;91.70;;;;;;5025414;28;20030;-68
2021/11/07 12:59:57;;;;;;;2.90;2.03;;;7.90;91.70;;;;;;5024152;28;20036;-69
2021/11/07 13:02:31;;;;;;;4.57;2.25;;;7.90;91.80;;;;;;5025352;28;20049;-69
2021/11/07 13:05:01;;;;;;;3.50;2.20;;;7.90;91.90;;;;;;5022103;28;20022;-68
2021/11/07 13:08:03;;;;;;;4.13;2.53;;;7.90;91.80;;;;;;5023021;28;20022;-68
2021/11/07 13:24:04;;;;;;;4.70;2.40;;;7.70;92.50;;;;;;5024377;28;20018;-69
2021/11/07 13:29:51;;;;;;;3.47;2.40;;;7.60;92.60;;;;;;5025003;28;20030;-68
2021/11/07 13:32:57;;;;;;;4.25;2.60;;;7.70;92.70;;;;;;5024743;28;20029;-68
2021/11/07 13:35:21;;;;;;;5.18;2.63;;;7.60;92.70;;;;;;5022184;28;20319;-69
2021/11/07 13:38:05;;;;;;;5.38;2.70;;;7.70;92.80;;;;;;5024664;28;20034;-69
2021/11/07 13:40:36;;;;;;;3.22;2.30;;;7.70;92.90;;;;;;5024120;28;20025;-70
2021/11/07 13:43:08;;;;;;;5.43;2.33;;;7.70;92.50;;;;;;5023524;28;20247;-70
2021/11/07 13:45:36;;;;;;;7.07;2.58;;;7.70;92.50;;;;;;5024966;28;20030;-69
2021/11/07 13:48:21;;;;;;;4.97;2.67;;;7.70;92.70;;;;;;5024013;28;20021;-69
2021/11/07 13:50:48;;;;;;;4.43;2.10;;;7.70;92.70;;;;;;5023502;28;20018;-69
2021/11/07 13:53:31;;;;;;;3.17;2.33;;;7.80;92.70;;;;;;5024131;28;20093;-70
2021/11/07 13:56:02;;;;;;;7.15;3.95;;;7.80;92.70;;;;;;5023878;28;20026;-68
2021/11/07 13:58:30;;;;;;;3.13;1.92;;;7.80;92.60;;;;;;5024530;28;20030;-70
2021/11/07 14:01:13;;;;;;;3.95;2.25;;;7.70;92.40;;;;;;5023511;28;20338;-69
2021/11/07 14:03:41;;;;;;;3.42;1.83;;;7.70;92.50;;;;;;5023706;28;20033;-69
2021/11/07 14:06:19;;;;;;;4.53;2.35;;;7.80;92.30;;;;;;5018549;28;20041;-69
2021/11/07 14:08:47;;;;;;;2.95;1.77;;;7.70;92.50;;;;;;5021108;28;20224;-69
2021/11/07 14:11:18;;;;;;;5.32;2.10;;;7.70;92.50;;;;;;5022121;28;20032;-69
2021/11/07 14:14:08;;;;;;;3.78;2.00;;;7.70;92.70;;;;;;5024418;28;20029;-69
2021/11/07 14:16:45;;;;;;;4.38;2.17;;;7.60;92.90;;;;;;5024261;28;20018;-70
2021/11/07 14:19:12;;;;;;;3.20;2.22;;;7.60;92.60;;;;;;5023442;28;20021;-69
2021/11/07 14:21:42;;;;;;;2.67;1.75;;;7.60;92.60;;;;;;5024081;28;20034;-70
2021/11/07 14:26:45;;;;;;;4.32;1.80;;;7.70;92.40;;;;;;5007089;28;20034;-68
2021/11/07 14:31:58;;;;;;;4.70;2.58;;;7.70;92.30;;;;;;5021914;28;20026;-68
2021/11/07 14:44:53;;;;;;;3.83;2.30;;;7.60;92.80;;;;;;5024032;28;20107;-69
2021/11/07 14:47:32;;;;;;;3.88;2.20;;;7.60;92.90;;;;;;5022526;28;20030;-69
2021/11/07 14:55:46;;;;;;;2.63;2.20;;;7.60;92.90;;;;;;5023805;28;20045;-69
2021/11/07 15:03:16;;;;;;;4.03;2.85;;;7.50;93.10;;;;;;5022545;28;20029;-68
2021/11/07 15:05:51;;;;;;;4.10;2.75;;;7.50;93.30;;;;;;5022732;28;20221;-68
2021/11/07 15:19:04;;;;;;;4.18;2.38;;;7.40;93.60;;;;;;5021627;28;20093;-69
2021/11/07 15:24:20;;;;;;;9.20;2.90;;;7.40;93.80;;;;;;5022777;28;20333;-69
2021/11/07 15:26:57;;;;;;;3.92;2.60;;;7.40;93.80;;;;;;5079383;28;20417;-70
2021/11/07 15:29:36;;;;;;;4.20;2.80;;;7.40;93.90;;;;;;5058061;28;20040;-70
2021/11/07 15:32:11;;;;;;;3.47;2.83;;;7.40;94.00;;;;;;5042728;28;20029;-70
2021/11/07 15:34:45;;;;;;;4.72;2.85;;;7.30;93.90;;;;;;5058333;28;20078;-69
2021/11/07 15:37:24;;;;;;;4.32;3.03;;;7.30;93.90;;;;;;5048453;28;20045;-70
2021/11/07 15:39:51;;;;;;;5.18;3.33;;;7.30;94.10;;;;;;5038962;28;20344;-69
2021/11/07 15:42:19;;;;;;;6.63;3.42;;;7.30;94.10;;;;;;5053797;28;20072;-69
2021/11/07 15:44:59;;;;;;;5.82;3.13;;;7.30;94.00;;;;;;5039027;28;20026;-70
2021/11/07 15:47:31;;;;;;;6.13;2.78;;;7.30;94.10;;;;;;5039176;28;20026;-70
2021/11/07 15:50:14;;;;;;;6.32;2.95;;;7.30;94.10;;;;;;5038917;28;20052;-70
2021/11/07 16:00:42;;;;;;;5.55;3.45;;;7.30;94.40;;;;;;5038819;28;20026;-70
2021/11/07 16:05:53;;;;;;;6.65;4.40;;;7.30;94.40;;;;;;5038916;28;20018;-71
2021/11/07 16:13:45;;;;;;;7.13;4.35;;;7.40;94.40;;;;;;5046414;28;20037;-73
2021/11/07 16:18:58;;;;;;;7.38;3.78;;;7.50;94.30;;;;;;5038180;28;20060;-74
2021/11/07 16:21:26;;;;;;;6.82;4.32;;;7.50;94.30;;;;;;5021186;28;20021;-72
2021/11/07 16:23:52;;;;;;;6.65;3.70;;;7.50;94.10;;;;;;5037757;28;20029;-73
2021/11/07 16:26:18;;;;;;;7.95;4.38;;;7.50;94.40;;;;;;5038399;28;20040;-74